Flight Number: EUR3050 Duration: 11:00
Departure: Dublin Airport (EIDW) at 07:00 Distance: 4515 Nm
Arrival: San Diego Int'l Airport (KSAN) at 18:00 Equipment: B777

Weather Information
Dublin Airport, Ireland (EIDW) 53-26N 006-15W 85M Nov 19, 2018 - 05:00 PM EST / 2018.11.19 2200 UTC
Wind: from the E (080 degrees) at 22 MPH (19 KT):0
Visibility: greater than 7 mile(s):0
Sky conditions: mostly cloudy Temperature: 46 F (8 C) Dew Point: 37 F (3 C) Relative Humidity: 70% Pressure (altimeter): 30.15 in. Hg (1021 hPa)
ob: EIDW 192200Z 08019KT 9999 SCT022 BKN050 08/03 Q1021 NOSIG cycle: 22
Sunrise: 08:03 Sunset: 16:17 (UTC)

SAN DIEGO INTERNATIONAL \LINDBERGH FLD, CA, United States (KSAN) 32-44N 117-11W 12M Nov 19, 2018 - 04:51 PM EST / 2018.11.19 2151 UTC
Wind: Calm:0
Visibility: 10 mile(s):0
Sky conditions: mostly cloudy Temperature: 68.0 F (20.0 C) Dew Point: 53.1 F (11.7 C) Relative Humidity: 58% Pressure (altimeter): 30.01 in. Hg (1016 hPa)
ob: KSAN 192151Z 00000KT 10SM BKN200 BKN250 20/12 A3001 RMK AO2 SLP161 T02000117 cycle: 22
Sunrise: 14:26 Sunset: 00:42 (UTC)

TAF:2018/11/19 21:58 TAF AMD KSAN 192056Z 1921/2024 29008KT P6SM BKN200 FM200000 VRB04KT P6SM BKN200 FM201100 VRB03KT P6SM SCT015 FM202000 26008KT P6SM BKN200

This route has never been flown.

Route map